Time;durP1;ratioP1;P1;durP2;ratioP2;P2;SDS_P1;SDS_P2;PMS_P1;PMS_P2;Temp;Humidity;BMP_temperature;BMP_pressure;BME280_temperature;BME280_humidity;BME280_pressure;Samples;Min_cycle;Max_cycle;Signal;HPM_P1;HPM_P2
2021/04/26 00:02:25;;;;;;;3.08;1.00;;;2.60;99.90;;;;;;5048163;28;20771;-80
2021/04/26 00:04:51;;;;;;;2.05;0.98;;;2.60;99.90;;;;;;5049336;28;20053;-80
2021/04/26 00:07:18;;;;;;;2.72;0.82;;;2.60;99.90;;;;;;5047269;28;20041;-80
2021/04/26 00:09:44;;;;;;;3.28;0.70;;;2.70;99.90;;;;;;5049005;28;20518;-80
2021/04/26 00:12:11;;;;;;;2.05;0.95;;;2.70;99.90;;;;;;5047484;28;20104;-80
2021/04/26 00:14:41;;;;;;;0.50;0.50;;;2.60;99.90;;;;;;5048542;28;20055;-80
2021/04/26 00:17:08;;;;;;;1.58;1.00;;;2.60;99.90;;;;;;5047321;28;20067;-80
2021/04/26 00:19:35;;;;;;;1.73;0.77;;;2.60;99.90;;;;;;5046028;28;20099;-80
2021/04/26 00:22:01;;;;;;;0.60;0.60;;;2.60;99.90;;;;;;5061393;28;20815;-80
2021/04/26 00:24:28;;;;;;;1.38;0.60;;;2.60;99.90;;;;;;5042252;28;20063;-80
2021/04/26 00:26:54;;;;;;;2.63;0.80;;;2.60;99.90;;;;;;5047594;28;20056;-80
2021/04/26 00:29:21;;;;;;;1.27;0.50;;;2.60;99.90;;;;;;5046687;28;20041;-81
2021/04/26 00:31:48;;;;;;;1.90;0.90;;;2.60;99.90;;;;;;5047486;28;20045;-81
2021/04/26 00:34:14;;;;;;;1.15;0.85;;;2.50;99.90;;;;;;5051651;28;20102;-80
2021/04/26 00:36:41;;;;;;;1.45;0.80;;;2.50;99.90;;;;;;5049288;28;20049;-80
2021/04/26 00:39:08;;;;;;;3.63;0.90;;;2.50;99.90;;;;;;5051673;28;20067;-80
2021/04/26 00:41:35;;;;;;;1.70;0.88;;;2.50;99.90;;;;;;5061283;28;20040;-80
2021/04/26 00:44:01;;;;;;;0.90;0.85;;;2.50;99.90;;;;;;5063214;28;20037;-80
2021/04/26 00:46:28;;;;;;;0.95;0.50;;;2.50;99.90;;;;;;5047792;28;20163;-80
2021/04/26 00:48:55;;;;;;;1.23;0.85;;;2.40;99.90;;;;;;5033125;28;20056;-80
2021/04/26 00:51:21;;;;;;;0.88;0.63;;;2.40;99.90;;;;;;5042905;28;20053;-81
2021/04/26 00:53:48;;;;;;;3.75;0.98;;;2.40;99.90;;;;;;5047431;28;20074;-81
2021/04/26 00:56:15;;;;;;;1.02;0.90;;;2.40;99.90;;;;;;5029641;28;20045;-80
2021/04/26 00:58:42;;;;;;;3.00;1.20;;;2.40;99.90;;;;;;5049139;28;20083;-80
2021/04/26 01:01:08;;;;;;;2.38;0.90;;;2.40;99.90;;;;;;5050046;28;20043;-79
2021/04/26 01:03:37;;;;;;;0.93;0.63;;;2.40;99.90;;;;;;5045508;28;20072;-80
2021/04/26 01:06:03;;;;;;;1.15;0.70;;;2.40;99.90;;;;;;5047197;28;20532;-80
2021/04/26 01:08:30;;;;;;;0.77;0.77;;;2.40;99.90;;;;;;5030922;28;20047;-80
2021/04/26 01:11:17;;;;;;;2.30;0.45;;;2.40;99.90;;;;;;5058069;28;20048;-81
2021/04/26 01:13:59;;;;;;;0.60;0.47;;;2.40;99.90;;;;;;5047523;28;20056;-80
2021/04/26 01:16:47;;;;;;;2.88;1.27;;;2.40;99.90;;;;;;5049009;28;20128;-80
2021/04/26 01:19:42;;;;;;;3.83;0.80;;;2.30;99.90;;;;;;5048798;28;20045;-81
2021/04/26 01:22:39;;;;;;;1.05;0.88;;;2.30;99.90;;;;;;5048306;28;20033;-80
2021/04/26 01:25:14;;;;;;;0.95;0.60;;;2.30;99.90;;;;;;5048250;28;20043;-80
2021/04/26 01:27:41;;;;;;;1.25;0.50;;;2.30;99.90;;;;;;5047219;28;20061;-81
2021/04/26 01:30:11;;;;;;;2.67;0.77;;;2.30;99.90;;;;;;5039473;28;20178;-80
2021/04/26 01:33:01;;;;;;;3.78;0.90;;;2.30;99.90;;;;;;5066608;28;20122;-80
2021/04/26 01:35:31;;;;;;;2.47;1.48;;;2.30;99.90;;;;;;5045230;28;20120;-80
2021/04/26 01:38:19;;;;;;;1.90;1.80;;;2.20;99.90;;;;;;5050174;28;20048;-81
2021/04/26 01:40:52;;;;;;;2.95;0.82;;;2.20;99.90;;;;;;5062486;28;20053;-81
2021/04/26 01:43:38;;;;;;;1.15;0.80;;;2.20;99.90;;;;;;5071973;28;20059;-81
2021/04/26 01:46:10;;;;;;;1.92;0.93;;;2.20;99.90;;;;;;5046874;28;20045;-80
2021/04/26 01:48:43;;;;;;;1.00;0.73;;;2.30;99.90;;;;;;5036948;28;20041;-81
2021/04/26 01:51:11;;;;;;;1.38;0.80;;;2.30;99.90;;;;;;5065046;28;20111;-80
2021/04/26 01:53:43;;;;;;;0.85;0.70;;;2.30;99.90;;;;;;5049131;28;20110;-81
2021/04/26 01:56:13;;;;;;;1.58;0.82;;;2.30;99.90;;;;;;5045584;28;20124;-81
2021/04/26 01:58:51;;;;;;;1.73;0.57;;;2.30;99.90;;;;;;5021644;28;20521;-79
2021/04/26 02:01:21;;;;;;;1.83;0.60;;;2.30;99.90;;;;;;5048079;28;20132;-80
2021/04/26 02:03:54;;;;;;;;;;;2.30;99.90;;;;;;5054037;28;20045;-81
2021/04/26 02:06:46;;;;;;;1.65;1.50;;;2.30;99.90;;;;;;5044540;28;19985;-81
2021/04/26 02:09:23;;;;;;;1.15;0.80;;;2.30;99.90;;;;;;5050213;28;20044;-80
2021/04/26 02:11:56;;;;;;;1.13;0.88;;;2.30;99.90;;;;;;5051059;28;20788;-81
2021/04/26 02:14:30;;;;;;;0.93;0.50;;;2.30;99.90;;;;;;5034180;28;20171;-80
2021/04/26 02:16:58;;;;;;;0.85;0.65;;;2.30;99.90;;;;;;5047993;28;20103;-81
2021/04/26 02:19:24;;;;;;;1.77;0.60;;;2.30;99.90;;;;;;5048072;28;20049;-80
2021/04/26 02:21:52;;;;;;;2.17;0.80;;;2.40;99.90;;;;;;5051208;28;20057;-80
2021/04/26 02:24:19;;;;;;;4.50;0.80;;;2.40;99.90;;;;;;5030617;28;20037;-80
2021/04/26 02:26:46;;;;;;;0.80;0.55;;;2.40;99.90;;;;;;5065177;28;20132;-80
2021/04/26 02:29:13;;;;;;;1.80;0.77;;;2.40;99.90;;;;;;5052936;28;20049;-80
2021/04/26 02:31:43;;;;;;;4.15;1.30;;;2.50;99.90;;;;;;5049331;28;20053;-80
2021/04/26 02:34:23;;;;;;;2.55;1.05;;;2.50;99.90;;;;;;5032602;28;20052;-80
2021/04/26 02:37:04;;;;;;;1.80;1.15;;;2.50;99.90;;;;;;5049375;28;20059;-80
2021/04/26 02:39:32;;;;;;;1.17;0.68;;;2.50;99.90;;;;;;5049551;28;20071;-80
2021/04/26 02:42:02;;;;;;;1.92;0.63;;;2.50;99.90;;;;;;5052423;28;20122;-80
2021/04/26 02:44:33;;;;;;;3.20;2.22;;;2.50;99.90;;;;;;5034658;28;20136;-80
2021/04/26 02:47:08;;;;;;;1.42;1.15;;;2.50;99.90;;;;;;5048945;28;20056;-80
2021/04/26 02:49:40;;;;;;;3.70;0.52;;;2.50;99.90;;;;;;5045809;28;20045;-80
2021/04/26 02:52:11;;;;;;;0.88;0.77;;;2.60;99.90;;;;;;5048970;28;20072;-80
2021/04/26 02:54:40;;;;;;;1.40;0.65;;;2.60;99.90;;;;;;5046597;28;20052;-79
2021/04/26 02:57:09;;;;;;;2.65;0.75;;;2.60;99.90;;;;;;5051381;28;20041;-79
2021/04/26 02:59:37;;;;;;;0.85;0.65;;;2.60;99.90;;;;;;5030806;28;20136;-80
2021/04/26 03:02:06;;;;;;;2.45;1.15;;;2.60;99.90;;;;;;5034572;28;20083;-79
2021/04/26 03:04:53;;;;;;;1.02;0.80;;;2.60;99.90;;;;;;5066332;28;20049;-80
2021/04/26 03:07:21;;;;;;;1.52;1.08;;;2.60;99.90;;;;;;5044464;28;20048;-79
2021/04/26 03:09:55;;;;;;;1.00;0.63;;;2.60;99.90;;;;;;5036847;28;20049;-79
2021/04/26 03:12:25;;;;;;;1.88;1.05;;;2.70;99.90;;;;;;5040773;28;20052;-80
2021/04/26 03:14:52;;;;;;;1.63;0.60;;;2.70;99.90;;;;;;5034862;28;20045;-79
2021/04/26 03:17:20;;;;;;;1.67;0.80;;;2.80;99.90;;;;;;5034033;28;20056;-79
2021/04/26 03:20:00;;;;;;;1.35;0.43;;;2.80;99.90;;;;;;5045540;28;20037;-79
2021/04/26 03:22:27;;;;;;;0.70;0.68;;;2.80;99.90;;;;;;5052054;28;20091;-80
2021/04/26 03:24:54;;;;;;;2.78;0.75;;;2.80;99.90;;;;;;5036027;28;20110;-80
2021/04/26 03:27:23;;;;;;;4.75;0.93;;;2.80;99.90;;;;;;5033197;28;20078;-80
2021/04/26 03:29:52;;;;;;;0.82;0.60;;;2.80;99.90;;;;;;5033078;28;20052;-79
2021/04/26 03:32:23;;;;;;;0.60;0.60;;;2.80;99.90;;;;;;5049328;28;20041;-79
2021/04/26 03:35:00;;;;;;;0.88;0.40;;;2.80;99.90;;;;;;5035686;28;20068;-80
2021/04/26 03:37:32;;;;;;;0.98;0.93;;;2.90;99.90;;;;;;5047813;28;20095;-80
2021/04/26 03:40:20;;;;;;;3.17;0.80;;;2.90;99.90;;;;;;5049851;28;20497;-80
2021/04/26 03:42:47;;;;;;;2.47;0.73;;;2.90;99.90;;;;;;5035339;28;20485;-79
2021/04/26 03:45:16;;;;;;;2.83;1.02;;;2.90;99.90;;;;;;5069237;28;20509;-79
2021/04/26 04:08:37;;;;;;;1.17;0.50;;;2.90;99.90;;;;;;4947631;28;20468;-63
2021/04/26 04:11:22;;;;;;;7.35;0.88;;;3.10;99.90;;;;;;4924001;28;20066;-63
2021/04/26 04:14:23;;;;;;;1.35;0.80;;;3.10;99.90;;;;;;4928818;28;20043;-62
2021/04/26 04:16:56;;;;;;;2.72;0.60;;;3.10;99.90;;;;;;4928671;28;20109;-61
2021/04/26 04:19:23;;;;;;;2.28;0.65;;;3.10;99.90;;;;;;4941277;28;20047;-60
2021/04/26 04:21:51;;;;;;;1.92;0.68;;;3.10;99.90;;;;;;4928630;28;20055;-61
2021/04/26 04:24:18;;;;;;;1.27;1.10;;;3.20;99.90;;;;;;4929775;28;20528;-61
2021/04/26 04:26:45;;;;;;;1.48;0.70;;;3.20;99.90;;;;;;4925634;28;22520;-62
2021/04/26 04:29:12;;;;;;;2.05;0.90;;;3.20;99.90;;;;;;4924910;28;20074;-62
2021/04/26 04:31:47;;;;;;;0.75;0.30;;;3.20;99.90;;;;;;4927528;28;20134;-62
2021/04/26 04:34:36;;;;;;;2.65;1.13;;;3.20;99.90;;;;;;4923809;28;20062;-63
2021/04/26 04:37:22;;;;;;;1.48;0.45;;;3.20;99.90;;;;;;4926442;28;20058;-62
2021/04/26 04:40:07;;;;;;;3.20;2.78;;;3.20;99.90;;;;;;4928595;28;20192;-64
2021/04/26 04:42:52;;;;;;;4.60;1.05;;;3.20;99.90;;;;;;4927849;28;20062;-64
2021/04/26 04:45:21;;;;;;;1.58;0.40;;;3.20;99.90;;;;;;4927678;28;20048;-62
2021/04/26 04:48:06;;;;;;;2.20;0.90;;;3.20;99.90;;;;;;4946079;28;20078;-63
2021/04/26 04:50:44;;;;;;;1.65;0.82;;;3.20;99.90;;;;;;4946678;28;20106;-66
2021/04/26 04:53:11;;;;;;;2.15;0.65;;;3.30;99.90;;;;;;4941220;28;20516;-64
2021/04/26 04:55:37;;;;;;;0.88;0.60;;;3.20;99.90;;;;;;4942742;28;20484;-63
2021/04/26 04:58:04;;;;;;;2.85;0.68;;;3.30;99.90;;;;;;4945697;28;20055;-64
2021/04/26 05:00:31;;;;;;;1.95;0.70;;;3.30;99.90;;;;;;4965771;28;20137;-64
2021/04/26 05:03:13;;;;;;;11.15;1.90;;;3.30;99.90;;;;;;4941566;28;20058;-63
2021/04/26 05:05:57;;;;;;;1.40;0.77;;;3.30;99.90;;;;;;4942319;28;20073;-64
2021/04/26 05:08:43;;;;;;;2.55;0.80;;;3.30;99.90;;;;;;4939531;28;20090;-63
2021/04/26 05:11:28;;;;;;;2.50;0.80;;;3.30;99.90;;;;;;4933562;28;20157;-66
2021/04/26 05:14:14;;;;;;;4.95;1.30;;;3.30;99.90;;;;;;4948621;28;20486;-62
2021/04/26 05:16:40;;;;;;;2.28;1.52;;;3.30;99.90;;;;;;4934874;28;20051;-63
2021/04/26 05:19:07;;;;;;;1.13;0.93;;;3.30;99.90;;;;;;4934614;28;20052;-63
2021/04/26 05:21:33;;;;;;;2.03;0.57;;;3.40;99.90;;;;;;4932406;28;20055;-63
2021/04/26 05:24:00;;;;;;;1.80;0.80;;;3.30;99.90;;;;;;4960072;28;20456;-64
2021/04/26 05:26:27;;;;;;;2.90;0.50;;;3.40;99.90;;;;;;4930149;28;20051;-63
2021/04/26 05:28:54;;;;;;;5.22;0.95;;;3.40;99.90;;;;;;4943004;28;20082;-63
2021/04/26 05:31:21;;;;;;;1.20;0.52;;;3.50;99.90;;;;;;4928239;28;20089;-63
2021/04/26 05:33:48;;;;;;;5.15;4.03;;;3.50;99.90;;;;;;4930642;28;20048;-62
2021/04/26 05:36:25;;;;;;;2.50;1.02;;;3.60;99.90;;;;;;4948853;28;20054;-63
2021/04/26 05:39:02;;;;;;;4.85;1.20;;;3.60;99.90;;;;;;4933959;28;20051;-61
2021/04/26 05:41:28;;;;;;;2.58;1.75;;;3.60;99.90;;;;;;4935913;28;20051;-63
2021/04/26 05:43:55;;;;;;;7.88;1.33;;;3.60;99.90;;;;;;4952225;28;20110;-64
2021/04/26 05:46:26;;;;;;;7.85;1.38;;;3.70;99.90;;;;;;4952257;28;20057;-64
2021/04/26 05:48:53;;;;;;;4.82;1.65;;;3.70;99.90;;;;;;4954446;28;20087;-62
2021/04/26 05:51:20;;;;;;;3.22;0.90;;;3.80;99.90;;;;;;4952674;28;20051;-65
2021/04/26 05:53:46;;;;;;;8.18;1.20;;;3.80;99.90;;;;;;4952041;28;20065;-63
2021/04/26 05:56:13;;;;;;;1.50;1.35;;;3.70;99.90;;;;;;4953952;28;20526;-63
2021/04/26 05:58:39;;;;;;;5.38;1.40;;;3.80;99.90;;;;;;4950023;28;20069;-66
2021/04/26 06:01:06;;;;;;;2.78;1.70;;;3.80;99.90;;;;;;4949195;28;20161;-65
2021/04/26 06:03:34;;;;;;;7.72;2.13;;;3.90;99.90;;;;;;4947739;28;20133;-64
2021/04/26 06:06:02;;;;;;;8.10;1.35;;;3.90;99.90;;;;;;3551074;28;10025261;-64
2021/04/26 06:08:29;;;;;;;5.40;1.55;;;3.90;99.90;;;;;;1698672;28;10002711;-62
2021/04/26 06:10:55;;;;;;;3.65;1.20;;;3.90;99.90;;;;;;4933850;28;20055;-64
2021/04/26 06:13:22;;;;;;;3.75;1.60;;;3.90;99.90;;;;;;4931844;28;20061;-65
2021/04/26 06:15:48;;;;;;;5.00;1.75;;;4.00;99.90;;;;;;4931511;28;20499;-63
2021/04/26 06:18:18;;;;;;;1.23;0.90;;;4.00;99.90;;;;;;4928400;28;20121;-63
2021/04/26 06:20:46;;;;;;;1.38;0.65;;;3.90;99.90;;;;;;4926792;28;20102;-65
2021/04/26 06:23:13;;;;;;;3.78;1.40;;;3.90;99.90;;;;;;4926601;28;20051;-62
2021/04/26 06:25:40;;;;;;;2.38;0.90;;;3.90;99.90;;;;;;4931523;28;20107;-64
2021/04/26 06:28:08;;;;;;;1.05;0.80;;;3.90;99.90;;;;;;4932038;28;20054;-65
2021/04/26 06:30:35;;;;;;;0.95;0.68;;;3.90;99.90;;;;;;4929754;28;20632;-65
2021/04/26 06:33:02;;;;;;;9.40;1.20;;;3.80;99.90;;;;;;4929606;28;20064;-63
2021/04/26 06:35:29;;;;;;;10.30;1.27;;;3.90;99.90;;;;;;4926681;28;20047;-64
2021/04/26 06:37:56;;;;;;;3.03;1.75;;;3.90;99.90;;;;;;4928649;28;21737;-63
2021/04/26 06:40:23;;;;;;;1.00;0.50;;;3.90;99.90;;;;;;4928215;28;20130;-65
2021/04/26 06:42:49;;;;;;;7.72;1.45;;;3.90;99.90;;;;;;4927467;28;20053;-65
2021/04/26 06:45:23;;;;;;;3.70;0.60;;;3.90;99.90;;;;;;4926742;28;20374;-64
2021/04/26 06:47:53;;;;;;;3.55;2.30;;;3.90;99.90;;;;;;4925653;28;20079;-63
2021/04/26 06:50:21;;;;;;;2.17;1.13;;;4.00;99.90;;;;;;4930033;28;20060;-65
2021/04/26 06:52:49;;;;;;;1.10;0.60;;;4.10;99.90;;;;;;4932444;28;20150;-66
2021/04/26 06:55:17;;;;;;;2.40;0.82;;;4.20;99.90;;;;;;4930147;28;20051;-65
2021/04/26 06:57:43;;;;;;;3.25;0.70;;;4.20;99.90;;;;;;4930893;28;20410;-63
2021/04/26 07:00:11;;;;;;;1.00;0.70;;;4.20;99.90;;;;;;4934427;28;20682;-65
2021/04/26 07:02:38;;;;;;;2.05;1.00;;;4.10;99.90;;;;;;4925965;28;20087;-64
2021/04/26 07:05:07;;;;;;;5.90;0.80;;;4.10;99.90;;;;;;4930016;28;20065;-66
2021/04/26 07:07:33;;;;;;;3.10;1.10;;;4.10;99.90;;;;;;4941848;28;20062;-63
2021/04/26 07:10:00;;;;;;;4.38;1.35;;;4.10;99.90;;;;;;4956349;28;20059;-65
2021/04/26 07:12:26;;;;;;;6.22;1.73;;;4.10;99.90;;;;;;4954695;28;20102;-64
2021/04/26 07:14:53;;;;;;;4.30;1.33;;;4.20;99.90;;;;;;4955759;28;20058;-63
2021/04/26 07:17:22;;;;;;;2.13;1.17;;;4.30;99.90;;;;;;4954184;28;20073;-66
2021/04/26 07:19:50;;;;;;;2.05;0.93;;;4.20;99.90;;;;;;4954997;28;20074;-64
2021/04/26 07:22:16;;;;;;;4.50;1.02;;;4.20;99.90;;;;;;4955542;28;20047;-64
2021/04/26 07:24:43;;;;;;;0.90;0.77;;;4.20;99.90;;;;;;4955783;28;20156;-64
2021/04/26 07:27:10;;;;;;;1.05;0.80;;;4.40;99.90;;;;;;4953916;28;20146;-65
2021/04/26 07:29:36;;;;;;;1.25;0.80;;;4.40;99.90;;;;;;4952600;28;20142;-62
2021/04/26 07:32:03;;;;;;;1.17;0.73;;;4.30;99.90;;;;;;4955713;28;20157;-62
2021/04/26 07:34:30;;;;;;;5.03;0.95;;;4.30;99.90;;;;;;4954003;28;20146;-64
2021/04/26 07:37:00;;;;;;;2.17;1.17;;;4.40;99.90;;;;;;4954575;28;20094;-62
2021/04/26 07:39:27;;;;;;;1.85;0.88;;;4.50;99.90;;;;;;4948841;28;20532;-64
2021/04/26 07:41:53;;;;;;;4.13;1.33;;;4.40;99.90;;;;;;4949720;28;20117;-64
2021/04/26 07:44:20;;;;;;;4.65;0.80;;;4.40;99.90;;;;;;4953318;28;20059;-64
2021/04/26 07:46:47;;;;;;;3.55;1.20;;;4.40;99.90;;;;;;4955309;28;20124;-63
2021/04/26 07:49:13;;;;;;;0.98;0.75;;;4.40;99.90;;;;;;4937819;28;20759;-62
2021/04/26 07:51:40;;;;;;;4.60;1.00;;;4.50;99.90;;;;;;4951853;28;20059;-65
2021/04/26 07:54:07;;;;;;;1.83;0.82;;;4.50;99.90;;;;;;4949117;28;20054;-64
2021/04/26 07:56:35;;;;;;;1.23;0.60;;;4.50;99.90;;;;;;4950133;28;20820;-62
2021/04/26 07:59:02;;;;;;;1.60;1.10;;;4.50;99.90;;;;;;4947875;28;20061;-63
2021/04/26 08:01:28;;;;;;;2.50;1.02;;;4.60;99.90;;;;;;4948346;28;20086;-65
2021/04/26 08:03:55;;;;;;;2.90;0.93;;;4.60;99.90;;;;;;4948744;28;20050;-64
2021/04/26 08:06:22;;;;;;;4.93;1.10;;;4.60;99.90;;;;;;4949214;28;20086;-62
2021/04/26 08:08:48;;;;;;;4.38;0.80;;;4.70;99.90;;;;;;4950191;28;20476;-62
2021/04/26 08:11:15;;;;;;;3.03;1.25;;;4.60;99.90;;;;;;4948739;28;20109;-64
2021/04/26 08:13:42;;;;;;;2.13;0.88;;;4.50;99.90;;;;;;4954572;28;20069;-61
2021/04/26 08:16:08;;;;;;;2.63;0.85;;;4.60;99.90;;;;;;4955147;28;20055;-63
2021/04/26 08:18:35;;;;;;;2.13;1.05;;;4.50;99.90;;;;;;4952587;28;20520;-63
2021/04/26 08:21:02;;;;;;;4.18;0.85;;;4.60;99.90;;;;;;4951137;28;20526;-63
2021/04/26 08:23:29;;;;;;;3.50;1.08;;;4.60;99.90;;;;;;4946745;28;20159;-63
2021/04/26 08:25:56;;;;;;;1.83;0.70;;;4.50;99.90;;;;;;4950573;28;20611;-65
2021/04/26 08:28:23;;;;;;;3.90;1.05;;;4.60;99.90;;;;;;4948755;28;20067;-65
2021/04/26 08:30:50;;;;;;;1.85;1.00;;;4.50;99.90;;;;;;4955253;28;20073;-62
2021/04/26 08:33:16;;;;;;;4.05;1.00;;;4.50;99.90;;;;;;4952296;28;20705;-65
2021/04/26 08:35:43;;;;;;;4.45;1.20;;;4.60;99.90;;;;;;4955295;28;20519;-65
2021/04/26 08:38:09;;;;;;;5.53;1.27;;;4.80;99.90;;;;;;4954693;28;20073;-63
2021/04/26 08:40:38;;;;;;;2.15;1.27;;;4.90;99.90;;;;;;4951537;28;20389;-65
2021/04/26 08:43:06;;;;;;;4.90;1.00;;;4.90;99.90;;;;;;4955783;28;20059;-66
2021/04/26 08:45:34;;;;;;;1.95;0.90;;;5.00;99.90;;;;;;4957424;28;20054;-63
2021/04/26 08:48:02;;;;;;;2.53;1.15;;;5.00;99.90;;;;;;4958764;28;20064;-63
2021/04/26 08:50:31;;;;;;;3.00;1.23;;;5.00;99.90;;;;;;4961866;28;20655;-63
2021/04/26 08:52:57;;;;;;;1.75;0.90;;;4.90;99.90;;;;;;4959325;28;20047;-64
2021/04/26 08:55:24;;;;;;;2.75;0.95;;;4.90;99.90;;;;;;4955958;28;20055;-63
2021/04/26 08:57:51;;;;;;;3.90;1.55;;;5.00;99.90;;;;;;4957888;28;20069;-63
2021/04/26 09:00:18;;;;;;;1.60;1.00;;;5.00;99.90;;;;;;4956429;28;20529;-64
2021/04/26 09:02:52;;;;;;;2.45;0.90;;;4.90;99.90;;;;;;4957125;28;20050;-64
2021/04/26 09:05:39;;;;;;;7.35;1.00;;;4.90;99.90;;;;;;4954481;28;20054;-63
2021/04/26 09:08:10;;;;;;;2.70;1.02;;;5.00;99.90;;;;;;4954395;28;20782;-64
2021/04/26 09:10:50;;;;;;;1.38;0.80;;;5.00;99.90;;;;;;4955621;28;20054;-63
2021/04/26 09:13:38;;;;;;;1.90;1.20;;;5.10;99.90;;;;;;4948625;28;20062;-64
2021/04/26 09:16:10;;;;;;;4.72;1.05;;;5.10;99.90;;;;;;4952222;28;20129;-65
2021/04/26 09:18:57;;;;;;;3.50;0.82;;;5.20;99.90;;;;;;4951233;28;20047;-65
2021/04/26 09:21:46;;;;;;;2.97;1.35;;;5.00;99.90;;;;;;4954590;28;20054;-65
2021/04/26 09:24:37;;;;;;;2.28;0.90;;;5.00;99.90;;;;;;4957915;28;20066;-63
2021/04/26 09:27:06;;;;;;;5.22;1.50;;;5.10;99.90;;;;;;4956958;28;20464;-65
2021/04/26 09:29:33;;;;;;;1.27;0.85;;;5.20;99.90;;;;;;4955156;28;20058;-64
2021/04/26 09:32:15;;;;;;;1.63;1.02;;;5.10;99.90;;;;;;4955323;28;20134;-63
2021/04/26 09:34:43;;;;;;;2.42;2.25;;;5.10;99.90;;;;;;4957525;28;20059;-65
2021/04/26 09:37:20;;;;;;;1.23;1.10;;;5.10;99.90;;;;;;4940453;28;20105;-64
2021/04/26 09:40:06;;;;;;;1.15;1.05;;;5.20;99.90;;;;;;4955187;28;20181;-63
2021/04/26 09:42:49;;;;;;;7.47;1.15;;;5.10;99.90;;;;;;4952498;28;20113;-62
2021/04/26 09:45:40;;;;;;;2.08;1.13;;;5.20;99.90;;;;;;4937398;28;20125;-62
2021/04/26 09:48:14;;;;;;;2.38;1.20;;;5.20;99.90;;;;;;4953511;28;20564;-64
2021/04/26 09:50:56;;;;;;;3.17;1.27;;;5.30;99.90;;;;;;4958142;28;20087;-65
2021/04/26 09:53:25;;;;;;;0.93;0.73;;;5.30;99.90;;;;;;4953092;28;20054;-65
2021/04/26 09:55:52;;;;;;;1.08;0.73;;;5.20;99.90;;;;;;4951711;28;20053;-65
2021/04/26 09:58:20;;;;;;;7.20;1.27;;;5.20;99.90;;;;;;4950103;28;20046;-64
2021/04/26 10:00:47;;;;;;;2.40;0.93;;;5.10;99.90;;;;;;4952642;28;20125;-63
2021/04/26 10:03:15;;;;;;;5.90;1.65;;;5.00;99.90;;;;;;4932276;28;20046;-63
2021/04/26 10:05:44;;;;;;;2.08;1.33;;;5.10;99.90;;;;;;4951544;28;20377;-66
2021/04/26 10:08:17;;;;;;;3.42;1.27;;;5.10;99.90;;;;;;4951388;28;20062;-63
2021/04/26 10:10:45;;;;;;;2.10;0.85;;;5.20;99.90;;;;;;4951178;28;20055;-64
2021/04/26 10:13:13;;;;;;;2.35;0.93;;;5.40;99.90;;;;;;4952231;28;20050;-63
2021/04/26 10:15:40;;;;;;;1.20;1.10;;;5.40;99.90;;;;;;4952046;28;20055;-64
2021/04/26 10:18:11;;;;;;;1.17;1.05;;;5.40;99.90;;;;;;4951754;28;21274;-63
2021/04/26 10:20:43;;;;;;;3.38;1.30;;;5.50;99.90;;;;;;4954598;28;20069;-65
2021/04/26 10:23:43;;;;;;;2.15;0.85;;;5.60;99.90;;;;;;4950785;28;20110;-64
2021/04/26 10:26:45;;;;;;;5.18;0.93;;;5.70;99.90;;;;;;4948006;28;20507;-63
2021/04/26 10:29:27;;;;;;;1.30;1.20;;;5.80;99.90;;;;;;4948268;28;20061;-64
2021/04/26 10:32:09;;;;;;;4.88;1.27;;;5.70;99.90;;;;;;4956640;28;20055;-62
2021/04/26 10:34:42;;;;;;;2.92;1.45;;;5.50;99.90;;;;;;4956113;28;20421;-63
2021/04/26 10:37:16;;;;;;;1.67;1.00;;;5.20;99.90;;;;;;4954062;28;20489;-63
2021/04/26 10:40:13;;;;;;;1.48;0.68;;;5.00;99.90;;;;;;4955026;28;20058;-63
2021/04/26 10:42:42;;;;;;;3.45;1.33;;;4.80;99.90;;;;;;4954490;28;20067;-64
2021/04/26 10:45:12;;;;;;;6.90;1.25;;;4.60;99.90;;;;;;4943645;28;20501;-64
2021/04/26 10:47:41;;;;;;;2.65;1.02;;;4.60;99.90;;;;;;4954686;28;20507;-65
2021/04/26 10:50:11;;;;;;;5.13;1.23;;;4.60;99.90;;;;;;4954305;28;20522;-64
2021/04/26 10:52:41;;;;;;;2.75;1.48;;;4.50;99.90;;;;;;4950505;28;20078;-61
2021/04/26 10:55:22;;;;;;;4.47;1.25;;;4.30;99.90;;;;;;4950240;28;20065;-64
2021/04/26 10:57:59;;;;;;;3.28;1.40;;;4.20;99.90;;;;;;4953186;28;20062;-62
2021/04/26 11:03:07;;;;;;;3.08;1.65;;;4.20;99.90;;;;;;4954484;28;20133;-63
2021/04/26 11:05:39;;;;;;;3.40;1.23;;;4.20;99.90;;;;;;4953567;28;20108;-62
2021/04/26 11:08:18;;;;;;;3.85;1.33;;;3.90;99.90;;;;;;4950043;28;20981;-63
2021/04/26 11:10:53;;;;;;;2.15;1.52;;;3.80;99.90;;;;;;4953600;28;20145;-65
2021/04/26 11:13:32;;;;;;;1.50;1.33;;;3.70;99.90;;;;;;4947801;28;20047;-65
2021/04/26 11:16:27;;;;;;;2.40;1.67;;;3.70;99.90;;;;;;4949688;28;20057;-63
2021/04/26 11:18:56;;;;;;;2.15;1.75;;;3.40;99.90;;;;;;4952745;28;20062;-63
2021/04/26 11:21:51;;;;;;;1.65;1.25;;;3.30;99.90;;;;;;4948065;28;20113;-64
2021/04/26 11:24:25;;;;;;;2.10;1.40;;;3.30;99.90;;;;;;4949716;28;20053;-65
2021/04/26 11:27:10;;;;;;;3.90;1.45;;;3.20;99.90;;;;;;4934382;28;20054;-64
2021/04/26 11:29:55;;;;;;;2.00;1.40;;;3.20;99.90;;;;;;4949416;28;20110;-65
2021/04/26 11:32:26;;;;;;;3.58;1.58;;;3.20;99.90;;;;;;4949450;28;20084;-63
2021/04/26 11:35:01;;;;;;;3.55;1.20;;;3.30;99.90;;;;;;4957199;28;20051;-65
2021/04/26 11:37:37;;;;;;;6.60;2.83;;;3.40;99.90;;;;;;4952428;28;20054;-63
2021/04/26 11:40:21;;;;;;;1.73;1.40;;;3.30;99.90;;;;;;4955695;28;20733;-65
2021/04/26 11:42:49;;;;;;;1.70;1.30;;;3.20;99.90;;;;;;4952294;28;20047;-63
2021/04/26 11:45:20;;;;;;;3.17;1.10;;;3.20;99.90;;;;;;4948424;28;20429;-64
2021/04/26 11:47:49;;;;;;;5.13;1.70;;;3.20;99.90;;;;;;4948213;28;20058;-64
2021/04/26 11:50:15;;;;;;;3.17;1.27;;;3.20;99.90;;;;;;4950089;28;20063;-64
2021/04/26 11:52:42;;;;;;;2.97;1.50;;;3.20;99.90;;;;;;4947824;28;20047;-65
2021/04/26 11:55:12;;;;;;;2.35;1.92;;;3.10;99.90;;;;;;4953812;28;20066;-65
2021/04/26 11:57:49;;;;;;;1.70;1.17;;;2.90;99.90;;;;;;4952950;28;20153;-63
2021/04/26 12:00:22;;;;;;;3.20;1.23;;;2.90;99.90;;;;;;4953733;28;20054;-63
2021/04/26 12:02:50;;;;;;;2.03;1.17;;;3.10;99.90;;;;;;4955073;28;20055;-65
2021/04/26 12:05:22;;;;;;;2.85;1.23;;;3.00;99.90;;;;;;4947737;28;20126;-64
2021/04/26 12:07:51;;;;;;;6.18;1.92;;;2.90;99.90;;;;;;4953931;28;20527;-64
2021/04/26 12:10:19;;;;;;;3.10;1.30;;;3.10;99.90;;;;;;4955951;28;20073;-63
2021/04/26 12:12:46;;;;;;;2.85;1.30;;;3.00;99.90;;;;;;4955008;28;20065;-64
2021/04/26 12:15:21;;;;;;;3.45;1.60;;;3.00;99.90;;;;;;4952484;28;20056;-65
2021/04/26 12:18:08;;;;;;;3.85;1.40;;;3.10;99.90;;;;;;4953767;28;20050;-66
2021/04/26 12:20:37;;;;;;;3.00;2.67;;;3.10;99.90;;;;;;4956977;28;20108;-65
2021/04/26 12:23:15;;;;;;;2.58;1.92;;;2.90;99.90;;;;;;4958402;28;20489;-63
2021/04/26 12:25:45;;;;;;;2.85;2.53;;;2.90;99.90;;;;;;4957425;28;20148;-63
2021/04/26 12:28:16;;;;;;;6.22;1.92;;;2.80;99.90;;;;;;4958572;28;20059;-65
2021/04/26 12:30:45;;;;;;;2.22;1.42;;;2.80;99.90;;;;;;4959424;28;20055;-63
2021/04/26 12:33:32;;;;;;;2.72;2.47;;;2.70;99.90;;;;;;4959525;28;20050;-61
2021/04/26 12:36:04;;;;;;;1.77;1.67;;;2.70;99.90;;;;;;4956199;28;20062;-64
2021/04/26 12:38:37;;;;;;;2.28;1.55;;;2.50;99.90;;;;;;4953711;28;20069;-63
2021/04/26 12:41:11;;;;;;;5.38;3.97;;;2.40;99.90;;;;;;4952911;28;20057;-66
2021/04/26 12:43:40;;;;;;;4.70;2.30;;;2.40;99.90;;;;;;4950786;28;20062;-64
2021/04/26 12:46:10;;;;;;;3.77;1.83;;;2.40;99.90;;;;;;4951607;28;21063;-64
2021/04/26 12:48:37;;;;;;;2.00;1.48;;;2.40;99.90;;;;;;4954203;28;20361;-63
2021/04/26 12:51:06;;;;;;;3.30;1.75;;;2.30;99.90;;;;;;4957766;28;20127;-63
2021/04/26 12:53:34;;;;;;;5.68;2.20;;;2.40;99.90;;;;;;4952216;28;20484;-65
2021/04/26 12:56:04;;;;;;;3.03;1.48;;;2.40;99.90;;;;;;4952362;28;20046;-65
2021/04/26 12:58:44;;;;;;;5.28;1.50;;;2.50;99.90;;;;;;4958459;28;20062;-62
2021/04/26 13:01:14;;;;;;;3.70;1.70;;;2.50;99.90;;;;;;4953342;28;20061;-65
2021/04/26 13:04:02;;;;;;;6.30;2.17;;;2.40;99.90;;;;;;4953148;28;20054;-65
2021/04/26 13:06:35;;;;;;;2.80;1.77;;;2.40;99.90;;;;;;4956419;28;20438;-63
2021/04/26 13:09:08;;;;;;;2.53;1.50;;;2.50;99.90;;;;;;4952008;28;20046;-63
2021/04/26 13:11:37;;;;;;;2.95;1.95;;;2.60;99.90;;;;;;4950572;28;20062;-62
2021/04/26 13:14:23;;;;;;;3.58;2.17;;;2.60;99.90;;;;;;4952410;28;20102;-65
2021/04/26 13:17:03;;;;;;;2.92;1.45;;;2.50;99.90;;;;;;4951812;28;20050;-65
2021/04/26 13:19:32;;;;;;;3.20;1.30;;;2.50;99.90;;;;;;4954090;28;20051;-63
2021/04/26 13:22:00;;;;;;;3.65;1.67;;;2.50;99.90;;;;;;4953518;28;20635;-62
2021/04/26 13:24:33;;;;;;;9.25;2.42;;;2.40;99.90;;;;;;4958095;28;20169;-64
2021/04/26 13:27:09;;;;;;;2.03;1.80;;;2.30;99.90;;;;;;4958686;28;20074;-63
2021/04/26 13:29:41;;;;;;;2.47;1.95;;;2.30;99.90;;;;;;4956117;28;20893;-63
2021/04/26 13:32:09;;;;;;;4.60;1.67;;;2.30;99.90;;;;;;4958655;28;20434;-65
2021/04/26 13:34:41;;;;;;;2.92;1.67;;;2.40;99.90;;;;;;4956497;28;20194;-64
2021/04/26 13:37:08;;;;;;;2.85;1.63;;;2.40;99.90;;;;;;4956683;28;20073;-62
2021/04/26 13:39:35;;;;;;;2.47;2.03;;;2.40;99.90;;;;;;4956584;28;20053;-65
2021/04/26 13:42:05;;;;;;;5.85;1.90;;;2.40;99.90;;;;;;4952996;28;20484;-63
2021/04/26 13:44:32;;;;;;;8.00;2.17;;;2.40;99.90;;;;;;4956042;28;20050;-64
2021/04/26 13:46:59;;;;;;;1.80;1.60;;;2.40;99.90;;;;;;4956503;28;20051;-62